地図

経路データ

SID SEASON NUMBER BASIN SUBBASIN NAME ISO_TIME NATURE LAT LON WMO_WIND WMO_PRES WMO_AGENCY TRACK_TYPE DIST2LAND LANDFALL IFLAG USA_AGENCY USA_ATCF_ID USA_LAT USA_LON USA_RECORD USA_STATUS USA_WIND USA_PRES USA_SSHS USA_R34_NE USA_R34_SE USA_R34_SW USA_R34_NW USA_R50_NE USA_R50_SE USA_R50_SW USA_R50_NW USA_R64_NE USA_R64_SE USA_R64_SW USA_R64_NW USA_POCI USA_ROCI USA_RMW USA_EYE TOKYO_LAT TOKYO_LON TOKYO_GRADE TOKYO_WIND TOKYO_PRES TOKYO_R50_DIR TOKYO_R50_LONG TOKYO_R50_SHORT TOKYO_R30_DIR TOKYO_R30_LONG TOKYO_R30_SHORT TOKYO_LAND CMA_LAT CMA_LON CMA_CAT CMA_WIND CMA_PRES HKO_LAT HKO_LON HKO_CAT HKO_WIND HKO_PRES NEWDELHI_LAT NEWDELHI_LON NEWDELHI_GRADE NEWDELHI_WIND NEWDELHI_PRES NEWDELHI_CI NEWDELHI_DP NEWDELHI_POCI REUNION_LAT REUNION_LON REUNION_TYPE REUNION_WIND REUNION_PRES REUNION_TNUM REUNION_CI REUNION_RMW REUNION_R34_NE REUNION_R34_SE REUNION_R34_SW REUNION_R34_NW REUNION_R50_NE REUNION_R50_SE REUNION_R50_SW REUNION_R50_NW REUNION_R64_NE REUNION_R64_SE REUNION_R64_SW REUNION_R64_NW BOM_LAT BOM_LON BOM_TYPE BOM_WIND BOM_PRES BOM_TNUM BOM_CI BOM_RMW BOM_R34_NE BOM_R34_SE BOM_R34_SW BOM_R34_NW BOM_R50_NE BOM_R50_SE BOM_R50_SW BOM_R50_NW BOM_R64_NE BOM_R64_SE BOM_R64_SW BOM_R64_NW BOM_ROCI BOM_POCI BOM_EYE BOM_POS_METHOD BOM_PRES_METHOD NADI_LAT NADI_LON NADI_CAT NADI_WIND NADI_PRES WELLINGTON_LAT WELLINGTON_LON WELLINGTON_WIND WELLINGTON_PRES DS824_LAT DS824_LON DS824_STAGE DS824_WIND DS824_PRES TD9636_LAT TD9636_LON TD9636_STAGE TD9636_WIND TD9636_PRES TD9635_LAT TD9635_LON TD9635_WIND TD9635_PRES TD9635_ROCI NEUMANN_LAT NEUMANN_LON NEUMANN_CLASS NEUMANN_WIND NEUMANN_PRES MLC_LAT MLC_LON MLC_CLASS MLC_WIND MLC_PRES USA_GUST BOM_GUST BOM_GUST_PER REUNION_GUST REUNION_GUST_PER USA_SEAHGT USA_SEARAD_NE USA_SEARAD_SE USA_SEARAD_SW USA_SEARAD_NW STORM_SPEED STORM_DIR
1939311N09132 1939 77 WP MM NOT_NAMED 1939-11-07 10:00:00 NR 9.20000 131.800 main 596 571 __________O___ -1 9.20000 131.800 7 10 301
1939311N09132 1939 77 WP MM NOT_NAMED 1939-11-07 12:00:00 NR 9.38046 131.501 main 571 534 __________P___ -1 9.38046 131.501 7 10 302
1939311N09132 1939 77 WP MM NOT_NAMED 1939-11-07 15:00:00 NR 9.65200 131.058 main 536 487 __________P___ -1 9.65200 131.058 7 10 302
1939311N09132 1939 77 WP MM NOT_NAMED 1939-11-07 18:00:00 NR 9.92632 130.630 main 487 452 __________P___ -1 9.92632 130.630 7 10 304
1939311N09132 1939 77 WP MM NOT_NAMED 1939-11-07 21:00:00 NR 10.2055 130.227 main 452 445 __________P___ -1 10.2055 130.227 7 10 306
1939311N09132 1939 77 WP MM NOT_NAMED 1939-11-07 22:00:00 NR 10.3000 130.100 main 445 427 __________O___ -1 10.3000 130.100 7 9 308
1939311N09132 1939 77 WP MM NOT_NAMED 1939-11-08 00:00:00 NR 10.4920 129.858 main 431 403 __________P___ -1 10.4920 129.858 7 9 311
1939311N09132 1939 77 WP MM NOT_NAMED 1939-11-08 03:00:00 NR 10.7925 129.527 main 403 371 __________P___ -1 10.7925 129.527 7 9 315
1939311N09132 1939 77 WP MM NOT_NAMED 1939-11-08 06:00:00 NR 11.1162 129.233 main 371 352 __________P___ -1 11.1162 129.233 7 9 322
1939311N09132 1939 77 WP MM NOT_NAMED 1939-11-08 09:00:00 NR 11.4724 128.977 main 353 342 __________P___ -1 11.4724 128.977 7 9 326
1939311N09132 1939 77 WP MM NOT_NAMED 1939-11-08 10:00:00 NR 11.6000 128.900 main 344 336 __________O___ -1 11.6000 128.900 7 9 333
1939311N09132 1939 77 WP MM NOT_NAMED 1939-11-08 12:00:00 NR 11.8897 128.757 main 342 331 __________P___ -1 11.8897 128.757 7 10 337
1939311N09132 1939 77 WP MM NOT_NAMED 1939-11-08 15:00:00 NR 12.3562 128.575 main 337 320 __________P___ -1 12.3562 128.575 7 10 340
1939311N09132 1939 77 WP MM NOT_NAMED 1939-11-08 18:00:00 NR 12.8279 128.414 main 322 316 __________P___ -1 12.8279 128.414 7 10 341
1939311N09132 1939 77 WP MM NOT_NAMED 1939-11-08 21:00:00 NR 13.2673 128.255 main 327 317 __________P___ -1 13.2673 128.255 7 9 340
1939311N09132 1939 77 WP MM NOT_NAMED 1939-11-08 22:00:00 NR 13.4000 128.200 main 322 317 __________O___ -1 13.4000 128.200 7 8 334
1939311N09132 1939 77 WP MM NOT_NAMED 1939-11-09 00:00:00 NR 13.6259 128.075 main 322 315 __________P___ -1 13.6259 128.075 7 7 329
1939311N09132 1939 77 WP MM NOT_NAMED 1939-11-09 03:00:00 NR 13.9206 127.881 main 322 319 __________P___ -1 13.9206 127.881 7 7 325
1939311N09132 1939 77 WP MM NOT_NAMED 1939-11-09 06:00:00 NR 14.1792 127.680 main 327 319 __________P___ -1 14.1792 127.680 7 6 322
1939311N09132 1939 77 WP MM NOT_NAMED 1939-11-09 09:00:00 NR 14.4203 127.471 main 326 319 __________P___ -1 14.4203 127.471 7 6 320
1939311N09132 1939 77 WP MM NOT_NAMED 1939-11-09 10:00:00 NR 14.5000 127.400 main 326 314 __________O___ -1 14.5000 127.400 7 7 319
1939311N09132 1939 77 WP MM NOT_NAMED 1939-11-09 12:00:00 NR 14.6750 127.243 main 314 301 __________P___ -1 14.6750 127.243 7 7 318
1939311N09132 1939 77 WP MM NOT_NAMED 1939-11-09 15:00:00 NR 14.9314 127.000 main 301 291 __________P___ -1 14.9314 127.000 7 7 318
1939311N09132 1939 77 WP MM NOT_NAMED 1939-11-09 18:00:00 NR 15.1801 126.766 main 296 283 __________P___ -1 15.1801 126.766 7 7 319
1939311N09132 1939 77 WP MM NOT_NAMED 1939-11-09 21:00:00 NR 15.4213 126.560 main 290 281 __________P___ -1 15.4213 126.560 7 6 321
1939311N09132 1939 77 WP MM NOT_NAMED 1939-11-09 22:00:00 NR 15.5000 126.500 main 288 287 __________O___ -1 15.5000 126.500 7 6 327
1939311N09132 1939 77 WP MM NOT_NAMED 1939-11-10 00:00:00 NR 15.6530 126.399 main 294 286 __________P___ -1 15.6530 126.399 7 5 331
1939311N09132 1939 77 WP MM NOT_NAMED 1939-11-10 03:00:00 NR 15.8762 126.280 main 302 294 __________P___ -1 15.8762 126.280 7 5 336
1939311N09132 1939 77 WP MM NOT_NAMED 1939-11-10 06:00:00 NR 16.0974 126.190 main 311 311 __________P___ -1 16.0974 126.190 7 5 341
1939311N09132 1939 77 WP MM NOT_NAMED 1939-11-10 09:00:00 NR 16.3229 126.120 main 321 321 __________P___ -1 16.3229 126.120 7 5 344
1939311N09132 1939 77 WP MM NOT_NAMED 1939-11-10 10:00:00 NR 16.4000 126.100 main 330 330 __________O___ -1 16.4000 126.100 7 4 339
1939311N09132 1939 77 WP MM NOT_NAMED 1939-11-10 12:00:00 NR 16.5216 126.035 main 334 334 __________P___ -1 16.5216 126.035 7 4 335
1939311N09132 1939 77 WP MM NOT_NAMED 1939-11-10 15:00:00 NR 16.7095 125.948 main 347 347 __________P___ -1 16.7095 125.948 7 4 342
1939311N09132 1939 77 WP MM NOT_NAMED 1939-11-10 18:00:00 NR 16.9427 125.893 main 361 361 __________P___ -1 16.9427 125.893 7 6 355
1939311N09132 1939 77 WP MM NOT_NAMED 1939-11-10 21:00:00 NR 17.2651 125.888 main 362 362 __________P___ -1 17.2651 125.888 7 7 3
1939311N09132 1939 77 WP MM NOT_NAMED 1939-11-10 22:00:00 NR 17.4000 125.900 main 363 363 __________O___ -1 17.4000 125.900 7 10 6
1939311N09132 1939 77 WP MM NOT_NAMED 1939-11-11 00:00:00 NR 17.7598 125.941 main 371 371 __________P___ -1 17.7598 125.941 7 12 8
1939311N09132 1939 77 WP MM NOT_NAMED 1939-11-11 03:00:00 NR 18.3949 126.053 main 400 400 __________P___ -1 18.3949 126.053 7 13 11
1939311N09132 1939 77 WP MM NOT_NAMED 1939-11-11 06:00:00 NR 19.0720 126.216 main 418 418 __________P___ -1 19.0720 126.216 7 14 15
1939311N09132 1939 77 WP MM NOT_NAMED 1939-11-11 09:00:00 NR 19.7101 126.423 main 454 454 __________P___ -1 19.7101 126.423 7 13 18
1939311N09132 1939 77 WP MM NOT_NAMED 1939-11-11 10:00:00 NR 19.9000 126.500 main 471 471 __________O___ -1 19.9000 126.500 2 11 24
1939311N09132 1939 77 WP MM NOT_NAMED 1939-11-11 12:00:00 NR 20.2198 126.662 main 503 503 __________P___ -1 20.2198 126.662 2 10 29
1939311N09132 1939 77 WP MM NOT_NAMED 1939-11-11 15:00:00 NR 20.6307 126.938 main 541 555 __________P___ -1 20.6307 126.938 2 9 35
1939311N09132 1939 77 WP MM NOT_NAMED 1939-11-11 18:00:00 NR 20.9644 127.230 main 589 589 __________P___ -1 20.9644 127.230 2 8 42
1939311N09132 1939 77 WP MM NOT_NAMED 1939-11-11 21:00:00 NR 21.2271 127.512 main 627 627 __________P___ -1 21.2271 127.512 2 7 46
1939311N09132 1939 77 WP MM NOT_NAMED 1939-11-11 22:00:00 NR 21.3000 127.600 main 642 642 __________O___ -1 21.3000 127.600 2 6 48
1939311N09132 1939 77 WP MM NOT_NAMED 1939-11-12 00:00:00 NR 21.4346 127.759 main 665 665 __________P___ -1 21.4346 127.759 2 5 51
1939311N09132 1939 77 WP MM NOT_NAMED 1939-11-12 03:00:00 NR 21.5799 127.978 main 694 694 __________P___ -1 21.5799 127.978 2 5 57
1939311N09132 1939 77 WP MM NOT_NAMED 1939-11-12 06:00:00 NR 21.6821 128.174 main 715 715 __________P___ -1 21.6821 128.174 2 4 61
1939311N09132 1939 77 WP MM NOT_NAMED 1939-11-12 09:00:00 NR 21.7694 128.347 main 720 729 __________P___ -1 21.7694 128.347 2 4 61
1939311N09132 1939 77 WP MM NOT_NAMED 1939-11-12 10:00:00 NR 21.8000 128.400 main 729 724 __________O___ -1 21.8000 128.400 2 2 27
1939311N09132 1939 77 WP MM NOT_NAMED 1939-11-12 12:00:00 NR 21.8626 128.384 main 724 710 __________P___ -1 21.8626 128.384 2 2 339
1939311N09132 1939 77 WP MM NOT_NAMED 1939-11-12 15:00:00 NR 21.9562 128.339 main 710 710 __________P___ -1 21.9562 128.339 2 2 5
1939311N09132 1939 77 WP MM NOT_NAMED 1939-11-12 18:00:00 NR 22.0713 128.399 main 715 715 __________P___ -1 22.0713 128.399 2 4 52
1939311N09132 1939 77 WP MM NOT_NAMED 1939-11-12 21:00:00 NR 22.2322 128.713 main 739 739 __________P___ -1 22.2322 128.713 2 8 64
1939311N09132 1939 77 WP MM NOT_NAMED 1939-11-12 22:00:00 NR 22.3000 128.900 main 755 755 __________O___ -1 22.3000 128.900 2 15 71
1939311N09132 1939 77 WP MM NOT_NAMED 1939-11-13 00:00:00 NR 22.4793 129.477 main 806 806 __________P___ -1 22.4793 129.477 2 20 73
1939311N09132 1939 77 WP MM NOT_NAMED 1939-11-13 03:00:00 NR 22.7910 130.627 main 905 888 __________P___ -1 22.7910 130.627 2 24 75
1939311N09132 1939 77 WP MM NOT_NAMED 1939-11-13 06:00:00 NR 23.1155 131.993 main 891 880 __________P___ -1 23.1155 131.993 2 27 76
1939311N09132 1939 77 WP MM NOT_NAMED 1939-11-13 09:00:00 NR 23.4130 133.430 main 889 888 __________P___ -1 23.4130 133.430 2 27 78
1939311N09132 1939 77 WP MM NOT_NAMED 1939-11-13 10:00:00 NR 23.5000 133.900 main 895 895 __________O___ -1 23.5000 133.900 2 26 79
1939311N09132 1939 77 WP MM NOT_NAMED 1939-11-13 12:00:00 NR 23.6510 134.801 main 909 914 __________P___ -1 23.6510 134.801 2 24 81
1939311N09132 1939 77 WP MM NOT_NAMED 1939-11-13 15:00:00 NR 23.8286 136.069 main 964 964 __________P___ -1 23.8286 136.069 2 23 82
1939311N09132 1939 77 WP MM NOT_NAMED 1939-11-13 18:00:00 NR 23.9625 137.264 main 1009 1009 __________P___ -1 23.9625 137.264 2 22 84
1939311N09132 1939 77 WP MM NOT_NAMED 1939-11-13 21:00:00 NR 24.0683 138.419 main 1066 1070 __________P___ -1 24.0683 138.419 2 21 84
1939311N09132 1939 77 WP MM NOT_NAMED 1939-11-13 22:00:00 NR 24.1000 138.800 main 1078 __________O___ -1 24.1000 138.800 7 21 85

デジタル台風データ・検索

IBTrACS Databaseについて

本データベースは、米国NOAAが公開する1842年以降の世界の熱帯低気圧のベストトラックデータアーカイブInternational Best Track Archive for Climate Stewardship (IBTrACS)を、ウェブで閲覧しやすい形式に変換したものです。

最終更新日:2021-12-01